createdAt,value
2023-05-05T00:01:02.182Z,98975.22
2023-05-05T00:03:29.652Z,98963.09
2023-05-05T00:05:56.816Z,98977.41
2023-05-05T00:08:23.834Z,98982.84
2023-05-05T00:10:52.814Z,98977.09
2023-05-05T00:13:21.095Z,98974.56
2023-05-05T00:15:50.663Z,98969.56
2023-05-05T00:18:18.509Z,98963.41
2023-05-05T00:20:47.180Z,98976.03
2023-05-05T00:23:15.306Z,98970.41
2023-05-05T00:25:42.213Z,98980.03
2023-05-05T00:28:10.336Z,98975.84
2023-05-05T00:30:37.438Z,98981.06
2023-05-05T00:33:04.751Z,98977.91
2023-05-05T00:35:31.721Z,98977.41
2023-05-05T00:37:59.579Z,98971.44
2023-05-05T00:40:26.769Z,98970.47
2023-05-05T00:42:53.884Z,98963.09
2023-05-05T00:45:20.871Z,98980.31
2023-05-05T00:47:54.514Z,98973.53
2023-05-05T00:50:25.164Z,98974.66
2023-05-05T00:52:57.032Z,98962.34
2023-05-05T00:55:24.175Z,98979.34
2023-05-05T00:57:51.621Z,98991.47
2023-05-05T01:00:18.446Z,98974.97
2023-05-05T01:02:45.524Z,98963.59
2023-05-05T01:05:13.734Z,98965.97
2023-05-05T01:07:43.568Z,98971.84
2023-05-05T01:10:24.786Z,98970.47
2023-05-05T01:13:53.999Z,98972.16
2023-05-05T01:16:34.525Z,98962.75
2023-05-05T01:19:43.127Z,98970.47
2023-05-05T01:22:13.856Z,98978.50
2023-05-05T01:25:08.779Z,98975.88
2023-05-05T01:28:18.420Z,98976.63
2023-05-05T01:31:18.285Z,98983.81
2023-05-05T01:33:49.987Z,98963.19
2023-05-05T01:36:26.048Z,98970.09
2023-05-05T01:38:59.568Z,98976.16
2023-05-05T01:41:33.698Z,98986.66
2023-05-05T01:44:05.358Z,98968.72
2023-05-05T01:46:34.474Z,98980.63
2023-05-05T01:49:01.421Z,98975.53
2023-05-05T01:51:29.501Z,98978.84
2023-05-05T01:54:07.723Z,98975.53
2023-05-05T01:56:38.154Z,98986.13
2023-05-05T01:59:06.980Z,98970.81
2023-05-05T02:01:38.894Z,98972.38
2023-05-05T02:04:09.723Z,98957.34
2023-05-05T02:06:38.355Z,98961.59
2023-05-05T02:09:06.634Z,98978.72
2023-05-05T02:11:33.741Z,98971.13
2023-05-05T02:14:02.288Z,98970.38
2023-05-05T02:16:31.126Z,98967.75
2023-05-05T02:19:02.332Z,98974.00
2023-05-05T02:21:29.168Z,98966.50
2023-05-05T02:23:56.018Z,98974.31
2023-05-05T02:26:24.753Z,98973.47
2023-05-05T02:29:33.098Z,98984.84
2023-05-05T02:32:06.068Z,98978.78
2023-05-05T02:34:38.492Z,98981.59
2023-05-05T02:37:10.112Z,98981.91
2023-05-05T02:39:59.067Z,98984.56
2023-05-05T02:42:36.047Z,98981.44
2023-05-05T02:45:12.394Z,98996.16
2023-05-05T02:47:39.279Z,98995.41
2023-05-05T02:50:07.604Z,98996.44
2023-05-05T02:52:35.182Z,98990.56
2023-05-05T02:55:03.782Z,99001.00
2023-05-05T02:58:06.806Z,98967.34
2023-05-05T03:00:51.291Z,98980.00
2023-05-05T03:03:30.598Z,98987.53
2023-05-05T03:06:20.786Z,98996.19
2023-05-05T03:09:03.368Z,99002.34
2023-05-05T03:11:38.834Z,98999.09
2023-05-05T03:14:13.999Z,99001.97
2023-05-05T03:16:42.682Z,98997.81
2023-05-05T03:19:13.373Z,98994.56
2023-05-05T03:21:40.850Z,99002.16
2023-05-05T03:24:20.665Z,98993.25
2023-05-05T03:26:49.388Z,98998.28
2023-05-05T03:29:16.498Z,98979.34
2023-05-05T03:31:43.488Z,99007.94
2023-05-05T03:34:10.483Z,98993.56
2023-05-05T03:36:37.432Z,99008.13
2023-05-05T03:39:04.348Z,99005.63
2023-05-05T03:41:31.203Z,99009.91
2023-05-05T03:43:58.088Z,99009.19
2023-05-05T03:46:25.077Z,99006.66
2023-05-05T03:48:51.994Z,99012.91
2023-05-05T03:51:18.865Z,99006.84
2023-05-05T03:53:48.538Z,99005.19
2023-05-05T03:56:15.436Z,99010.41
2023-05-05T03:58:42.260Z,99019.13
2023-05-05T04:01:09.135Z,99003.88
2023-05-05T04:03:36.012Z,99009.66
2023-05-05T04:06:03.013Z,99012.63
2023-05-05T04:08:29.872Z,99013.09
2023-05-05T04:10:57.457Z,99015.81
2023-05-05T04:13:24.526Z,99018.41
2023-05-05T04:15:51.437Z,99012.53
2023-05-05T04:18:18.455Z,99010.94
2023-05-05T04:20:45.648Z,99020.25
2023-05-05T04:23:12.735Z,99028.88
2023-05-05T04:25:39.640Z,99027.22
2023-05-05T04:28:06.421Z,99026.38
2023-05-05T04:30:33.300Z,99024.53
2023-05-05T04:33:00.453Z,99026.22
2023-05-05T04:35:27.348Z,99026.22
2023-05-05T04:37:54.742Z,99017.00
2023-05-05T04:40:21.626Z,99022.22
2023-05-05T04:42:48.515Z,99020.63
2023-05-05T04:45:15.589Z,99026.38
2023-05-05T04:47:42.542Z,99033.47
2023-05-05T04:50:11.249Z,99038.50
2023-05-05T04:52:38.377Z,99034.94
2023-05-05T04:55:06.154Z,99044.34
2023-05-05T04:57:32.956Z,99048.72
2023-05-05T05:00:01.481Z,99046.09
2023-05-05T05:02:28.511Z,99053.91
2023-05-05T05:04:55.391Z,99047.13
2023-05-05T05:07:22.334Z,99048.72
2023-05-05T05:09:49.220Z,99034.38
2023-05-05T05:12:16.299Z,99053.72
2023-05-05T05:14:43.172Z,99057.09
2023-05-05T05:17:11.073Z,99054.28
2023-05-05T05:19:37.950Z,99055.97
2023-05-05T05:22:04.741Z,99043.50
2023-05-05T05:24:31.535Z,99059.59
2023-05-05T05:26:58.638Z,99063.69
2023-05-05T05:29:26.919Z,99056.63
2023-05-05T05:31:53.833Z,99064.44
2023-05-05T05:34:20.708Z,99062.75
2023-05-05T05:36:47.531Z,99057.09
2023-05-05T05:39:14.325Z,99067.06
2023-05-05T05:41:41.130Z,99064.59
2023-05-05T05:44:08.025Z,99062.56
2023-05-05T05:46:34.954Z,99063.41
2023-05-05T05:49:01.860Z,99047.13
2023-05-05T05:51:29.003Z,99055.50
2023-05-05T05:53:58.199Z,99061.34
2023-05-05T05:56:25.660Z,99061.91
2023-05-05T05:58:52.567Z,99058.66
2023-05-05T06:01:19.543Z,99062.00
2023-05-05T06:03:46.674Z,99072.88
2023-05-05T06:06:13.643Z,99073.72
2023-05-05T06:08:40.546Z,99066.84
2023-05-05T06:11:08.065Z,99057.25
2023-05-05T06:13:35.050Z,99076.50
2023-05-05T06:16:02.090Z,99067.09
2023-05-05T06:18:29.001Z,99070.06
2023-05-05T06:20:55.915Z,99062.97
2023-05-05T06:23:22.834Z,99066.88
2023-05-05T06:25:49.611Z,99063.97
2023-05-05T06:28:16.566Z,99054.59
2023-05-05T06:30:43.430Z,99057.53
2023-05-05T06:33:10.423Z,99071.03
2023-05-05T06:35:37.318Z,99055.13
2023-05-05T06:38:04.285Z,99074.00
2023-05-05T06:40:31.867Z,99073.91
2023-05-05T06:42:58.698Z,99072.84
2023-05-05T06:45:25.881Z,99079.19
2023-05-05T06:47:52.804Z,99063.94
2023-05-05T06:50:20.098Z,99077.13
2023-05-05T06:52:46.962Z,99071.81
2023-05-05T06:55:13.763Z,99072.47
2023-05-05T06:57:40.575Z,99085.53
2023-05-05T07:00:11.308Z,99075.09
2023-05-05T07:02:38.646Z,99073.84
2023-05-05T07:05:06.125Z,99073.75
2023-05-05T07:07:32.990Z,99075.88
2023-05-05T07:10:00.253Z,99082.75
2023-05-05T07:12:33.410Z,99074.81
2023-05-05T07:15:04.792Z,99081.09
2023-05-05T07:17:36.456Z,99077.56
2023-05-05T07:20:03.852Z,99087.38
2023-05-05T07:22:30.814Z,99075.06
2023-05-05T07:24:57.692Z,99081.75
2023-05-05T07:27:24.732Z,99085.09
2023-05-05T07:29:51.732Z,99084.91
2023-05-05T07:32:18.644Z,99086.56
2023-05-05T07:34:45.724Z,99083.53
2023-05-05T07:37:13.186Z,99084.91
2023-05-05T07:39:40.062Z,99090.66
2023-05-05T07:42:07.377Z,99086.06
2023-05-05T07:44:34.394Z,99084.09
2023-05-05T07:47:01.360Z,99089.53
2023-05-05T07:49:28.186Z,99090.78
2023-05-05T07:51:55.375Z,99093.91
2023-05-05T07:54:22.216Z,99087.34
2023-05-05T07:56:49.125Z,99077.38
2023-05-05T07:59:15.979Z,99077.50
2023-05-05T08:01:42.781Z,99089.31
2023-05-05T08:04:09.825Z,99077.97
2023-05-05T08:06:36.807Z,99084.44
2023-05-05T08:09:03.730Z,99085.91
2023-05-05T08:11:30.551Z,99081.41
2023-05-05T08:13:57.435Z,99084.41
2023-05-05T08:16:24.409Z,99082.75
2023-05-05T08:18:52.056Z,99095.28
2023-05-05T08:21:18.943Z,99083.56
2023-05-05T08:23:45.819Z,99095.03
2023-05-05T08:26:12.623Z,99097.31
2023-05-05T08:28:39.493Z,99092.59
2023-05-05T08:31:06.888Z,99096.56
2023-05-05T08:33:34.022Z,99097.06
2023-05-05T08:36:01.016Z,99109.72
2023-05-05T08:38:27.891Z,99110.94
2023-05-05T08:40:54.709Z,99115.44
2023-05-05T08:43:23.758Z,99113.59
2023-05-05T08:45:51.761Z,99103.09
2023-05-05T08:48:22.846Z,99121.94
2023-05-05T08:50:57.285Z,99126.69
2023-05-05T08:53:57.193Z,99122.44
2023-05-05T08:56:27.633Z,99121.84
2023-05-05T08:58:56.498Z,99125.03
2023-05-05T09:01:23.570Z,99107.09
2023-05-05T09:03:52.639Z,99109.78
2023-05-05T09:06:25.566Z,99102.91
2023-05-05T09:08:53.457Z,99104.81
2023-05-05T09:11:21.536Z,99105.09
2023-05-05T09:13:48.464Z,99102.78
2023-05-05T09:16:15.596Z,99090.28
2023-05-05T09:18:42.727Z,99094.38
2023-05-05T09:21:25.949Z,99093.84
2023-05-05T09:24:12.330Z,99095.97
2023-05-05T09:26:44.794Z,99082.38
2023-05-05T09:29:19.468Z,99091.34
2023-05-05T09:32:11.147Z,99071.19
2023-05-05T09:34:38.170Z,99069.03
2023-05-05T09:37:06.299Z,99067.63
2023-05-05T09:39:33.333Z,99050.69
2023-05-05T09:42:00.426Z,99063.44
2023-05-05T09:44:36.577Z,99053.81
2023-05-05T09:47:07.215Z,99058.31
2023-05-05T09:49:39.292Z,99054.53
2023-05-05T09:52:17.698Z,99043.56
2023-05-05T09:54:44.674Z,99039.88
2023-05-05T09:57:32.362Z,99054.28
2023-05-05T10:00:04.320Z,99044.78
2023-05-05T10:02:38.524Z,99063.97
2023-05-05T10:05:11.368Z,99061.13
2023-05-05T10:07:41.233Z,99059.22
2023-05-05T10:10:12.054Z,99056.47
2023-05-05T10:12:39.752Z,99057.91
2023-05-05T10:15:08.765Z,99058.66
2023-05-05T10:20:21.068Z,99047.63
2023-05-05T10:22:53.363Z,99058.47
2023-05-05T10:25:52.022Z,99050.00
2023-05-05T10:28:29.737Z,99045.34
2023-05-05T10:30:59.140Z,99034.88
2023-05-05T10:33:49.653Z,99034.13
2023-05-05T10:36:16.790Z,99031.41
2023-05-05T10:38:45.410Z,99031.53
2023-05-05T10:41:15.143Z,99030.69
2023-05-05T10:43:42.891Z,99025.69
2023-05-05T10:46:10.628Z,99030.69
2023-05-05T10:48:56.591Z,99028.53
2023-05-05T10:51:44.346Z,99026.97
2023-05-05T10:54:28.205Z,99019.09
2023-05-05T10:56:55.670Z,99022.56
2023-05-05T10:59:37.848Z,99017.44
2023-05-05T11:02:43.463Z,99009.34
2023-05-05T11:05:21.269Z,98996.59
2023-05-05T11:07:51.063Z,98998.25
2023-05-05T11:10:23.622Z,99005.53
2023-05-05T11:13:10.910Z,98996.94
2023-05-05T11:15:38.185Z,98977.59
2023-05-05T11:18:07.994Z,98987.16
2023-05-05T11:20:41.185Z,98979.50
2023-05-05T11:23:08.028Z,98982.00
2023-05-05T11:25:35.126Z,98981.41
2023-05-05T11:28:30.927Z,98947.69
2023-05-05T11:30:58.697Z,98977.59
2023-05-05T11:33:39.259Z,98970.91
2023-05-05T11:36:08.245Z,98968.41
2023-05-05T11:39:06.053Z,98969.13
2023-05-05T11:41:32.937Z,98962.78
2023-05-05T11:44:20.970Z,98956.59
2023-05-05T11:46:54.446Z,98960.47
2023-05-05T11:49:35.299Z,98953.44
2023-05-05T11:52:06.439Z,98963.34
2023-05-05T11:54:36.094Z,98964.72
2023-05-05T11:57:08.236Z,98966.28
2023-05-05T11:59:37.372Z,98965.94
2023-05-05T12:02:04.856Z,98962.16
2023-05-05T12:04:32.137Z,98965.25
2023-05-05T12:06:59.893Z,98958.72
2023-05-05T12:09:27.438Z,98956.78
2023-05-05T12:11:56.427Z,98965.78
2023-05-05T12:14:24.941Z,98958.72
2023-05-05T12:17:07.652Z,98953.31
2023-05-05T12:19:44.901Z,98949.66
2023-05-05T12:22:23.110Z,98957.03
2023-05-05T12:25:05.201Z,98948.63
2023-05-05T12:27:32.236Z,98948.44
2023-05-05T12:30:13.880Z,98946.38
2023-05-05T12:32:41.419Z,98932.94
2023-05-05T12:35:09.727Z,98927.69
2023-05-05T12:37:36.854Z,98921.47
2023-05-05T12:40:06.235Z,98919.81
2023-05-05T12:42:39.460Z,98927.81
2023-05-05T12:45:09.771Z,98928.19
2023-05-05T12:47:37.306Z,98917.00
2023-05-05T12:50:04.417Z,98916.03
2023-05-05T12:52:45.480Z,98915.19
2023-05-05T12:55:13.032Z,98909.13
2023-05-05T12:58:04.344Z,98895.19
2023-05-05T13:00:31.628Z,98892.41
2023-05-05T13:02:58.578Z,98889.78
2023-05-05T13:05:33.508Z,98888.28
2023-05-05T13:08:00.457Z,98888.66
2023-05-05T13:10:28.214Z,98887.84
2023-05-05T13:12:56.808Z,98870.41
2023-05-05T13:15:24.985Z,98874.84
2023-05-05T13:18:02.579Z,98872.88
2023-05-05T13:20:29.807Z,98857.13
2023-05-05T13:22:57.283Z,98864.22
2023-05-05T13:25:24.283Z,98866.13
2023-05-05T13:27:51.096Z,98857.19
2023-05-05T13:30:18.077Z,98853.56
2023-05-05T13:32:44.977Z,98844.97
2023-05-05T13:35:14.018Z,98838.88
2023-05-05T13:37:44.210Z,98838.34
2023-05-05T13:40:13.308Z,98836.56
2023-05-05T13:42:40.159Z,98832.81
2023-05-05T13:45:07.847Z,98828.13
2023-05-05T13:47:34.924Z,98824.53
2023-05-05T13:50:01.904Z,98822.59
2023-05-05T13:52:29.894Z,98811.94
2023-05-05T13:54:58.568Z,98809.41
2023-05-05T13:57:25.685Z,98804.69
2023-05-05T13:59:52.494Z,98775.84
2023-05-05T14:02:19.384Z,98792.25
2023-05-05T14:04:46.317Z,98791.56
2023-05-05T14:07:13.138Z,98796.41
2023-05-05T14:09:39.937Z,98778.84
2023-05-05T14:12:06.854Z,98787.97
2023-05-05T14:14:34.378Z,98777.75
2023-05-05T14:17:01.390Z,98772.63
2023-05-05T14:19:28.249Z,98774.84
2023-05-05T14:21:55.182Z,98765.53
2023-05-05T14:24:22.002Z,98764.44
2023-05-05T14:26:49.174Z,98772.19
2023-05-05T14:29:16.071Z,98777.59
2023-05-05T14:31:42.998Z,98772.50
2023-05-05T14:34:09.818Z,98770.00
2023-05-05T14:36:36.604Z,98777.31
2023-05-05T14:39:03.451Z,98765.84
2023-05-05T14:41:30.297Z,98763.06
2023-05-05T14:43:57.232Z,98770.81
2023-05-05T14:46:24.151Z,98768.03
2023-05-05T14:48:51.127Z,98759.34
2023-05-05T14:51:18.015Z,98747.56
2023-05-05T14:53:44.960Z,98758.34
2023-05-05T14:56:11.846Z,98748.25
2023-05-05T14:58:38.744Z,98761.00
2023-05-05T15:01:05.776Z,98755.88
2023-05-05T15:03:32.851Z,98752.16
2023-05-05T15:05:59.932Z,98753.81
2023-05-05T15:08:26.772Z,98759.59
2023-05-05T15:10:53.638Z,98770.81
2023-05-05T15:13:20.562Z,98771.09
2023-05-05T15:15:48.363Z,98762.63
2023-05-05T15:18:15.440Z,98769.03
2023-05-05T15:20:42.241Z,98758.75
2023-05-05T15:23:09.368Z,98747.69
2023-05-05T15:25:36.539Z,98746.69
2023-05-05T15:28:03.389Z,98760.16
2023-05-05T15:30:30.355Z,98756.25
2023-05-05T15:32:57.273Z,98752.09
2023-05-05T15:35:25.529Z,98732.84
2023-05-05T15:37:53.453Z,98747.94
2023-05-05T15:40:20.344Z,98749.16
2023-05-05T15:42:49.635Z,98748.47
2023-05-05T15:45:17.059Z,98750.38
2023-05-05T15:47:43.995Z,98755.91
2023-05-05T15:50:11.036Z,98744.03
2023-05-05T15:52:38.564Z,98744.41
2023-05-05T15:55:06.697Z,98749.53
2023-05-05T15:57:34.250Z,98755.06
2023-05-05T16:00:01.526Z,98751.03
2023-05-05T16:02:28.521Z,98753.41
2023-05-05T16:04:55.479Z,98757.00
2023-05-05T16:07:22.283Z,98765.16
2023-05-05T16:09:49.159Z,98766.38
2023-05-05T16:12:16.022Z,98777.44
2023-05-05T16:14:42.830Z,98780.31
2023-05-05T16:17:09.694Z,98792.75
2023-05-05T16:19:36.633Z,98783.34
2023-05-05T16:22:03.706Z,98800.63
2023-05-05T16:24:30.584Z,98805.59
2023-05-05T16:26:57.366Z,98814.69
2023-05-05T16:29:24.179Z,98820.19
2023-05-05T16:31:51.015Z,98827.09
2023-05-05T16:34:17.851Z,98832.59
2023-05-05T16:36:44.971Z,98850.63
2023-05-05T16:39:11.956Z,98843.41
2023-05-05T16:41:38.864Z,98853.03
2023-05-05T16:44:06.366Z,98854.63
2023-05-05T16:46:37.414Z,98857.22
2023-05-05T16:49:04.503Z,98873.75
2023-05-05T16:51:31.529Z,98874.66
2023-05-05T16:53:58.374Z,98887.06
2023-05-05T16:56:25.417Z,98904.31
2023-05-05T16:58:52.637Z,98914.19
2023-05-05T17:01:19.494Z,98924.56
2023-05-05T17:03:46.357Z,98912.28
2023-05-05T17:06:13.249Z,98907.69
2023-05-05T17:08:40.146Z,98897.59
2023-05-05T17:11:06.977Z,98895.81
2023-05-05T17:13:34.008Z,98917.38
2023-05-05T17:16:00.975Z,98916.16
2023-05-05T17:18:28.043Z,98898.69
2023-05-05T17:20:54.926Z,98904.28
2023-05-05T17:23:21.883Z,98906.28
2023-05-05T17:25:48.784Z,98903.09
2023-05-05T17:28:17.226Z,98909.16
2023-05-05T17:30:44.278Z,98917.16
2023-05-05T17:33:11.360Z,98931.91
2023-05-05T17:35:38.845Z,98918.69
2023-05-05T17:38:05.821Z,98920.00
2023-05-05T17:40:32.757Z,98927.13
2023-05-05T17:42:59.669Z,98928.81
2023-05-05T17:45:26.702Z,98923.81
2023-05-05T17:47:53.728Z,98923.81
2023-05-05T17:50:20.645Z,98930.22
2023-05-05T17:52:47.556Z,98932.59
2023-05-05T17:55:14.516Z,98928.31
2023-05-05T17:57:41.386Z,98924.72
2023-05-05T18:00:09.067Z,98906.75
2023-05-05T18:02:37.129Z,98920.13
2023-05-05T18:05:04.991Z,98904.25
2023-05-05T18:07:33.579Z,98904.75
2023-05-05T18:10:00.479Z,98886.31
2023-05-05T18:12:27.310Z,98897.25
2023-05-05T18:14:54.132Z,98900.94
2023-05-05T18:17:21.182Z,98899.28
2023-05-05T18:19:49.239Z,98913.78
2023-05-05T18:22:16.353Z,98888.16
2023-05-05T18:24:43.227Z,98921.50
2023-05-05T18:27:10.231Z,98920.16
2023-05-05T18:29:37.177Z,98918.50
2023-05-05T18:32:06.439Z,98911.31
2023-05-05T18:34:33.351Z,98926.66
2023-05-05T18:37:00.523Z,98899.63
2023-05-05T18:39:28.099Z,98928.13
2023-05-05T18:41:54.997Z,98922.50
2023-05-05T18:44:21.883Z,98918.19
2023-05-05T18:46:49.015Z,98927.75
2023-05-05T18:49:16.280Z,98925.69
2023-05-05T18:51:43.762Z,98925.56
2023-05-05T18:54:10.717Z,98914.56
2023-05-05T18:56:37.548Z,98942.44
2023-05-05T18:59:04.840Z,98944.19
2023-05-05T19:01:32.681Z,98958.59
2023-05-05T19:03:59.643Z,98966.19
2023-05-05T19:06:27.325Z,98972.84
2023-05-05T19:08:55.352Z,98962.72
2023-05-05T19:11:22.821Z,98970.94
2023-05-05T19:13:49.658Z,98975.44
2023-05-05T19:16:17.152Z,98982.50
2023-05-05T19:18:44.166Z,98973.41
2023-05-05T19:21:11.008Z,98981.88
2023-05-05T19:23:38.241Z,98986.38
2023-05-05T19:26:05.661Z,98978.53
2023-05-05T19:28:32.983Z,98967.69
2023-05-05T19:30:59.871Z,98982.06
2023-05-05T19:33:26.745Z,98990.38
2023-05-05T19:35:53.728Z,98993.09
2023-05-05T19:38:20.571Z,98995.09
2023-05-05T19:40:47.478Z,99009.13
2023-05-05T19:43:14.380Z,99010.41
2023-05-05T19:45:41.491Z,99020.53
2023-05-05T19:48:08.480Z,99019.81
2023-05-05T19:50:35.372Z,99016.25
2023-05-05T19:53:03.925Z,99005.19
2023-05-05T19:55:32.062Z,99027.53
2023-05-05T19:57:58.940Z,99031.94
2023-05-05T20:00:25.996Z,99038.00
2023-05-05T20:02:52.889Z,99036.44
2023-05-05T20:05:19.775Z,99023.59
2023-05-05T20:07:46.972Z,99008.34
2023-05-05T20:10:14.101Z,99045.56
2023-05-05T20:12:48.378Z,99044.09
2023-05-05T20:15:19.528Z,99050.16
2023-05-05T20:17:49.861Z,99045.91
2023-05-05T20:20:21.245Z,99045.16
2023-05-05T20:22:49.063Z,99051.22
2023-05-05T20:25:16.387Z,99036.91
2023-05-05T20:27:44.264Z,99043.69
2023-05-05T20:30:12.244Z,99037.72
2023-05-05T20:32:39.327Z,99030.75
2023-05-05T20:35:07.286Z,99038.06
2023-05-05T20:37:34.198Z,99044.16
2023-05-05T20:40:01.079Z,99034.84
2023-05-05T20:42:29.567Z,99036.72
2023-05-05T20:44:56.691Z,99046.94
2023-05-05T20:47:24.222Z,99046.25
2023-05-05T20:49:52.221Z,99051.59
2023-05-05T20:52:19.626Z,99040.41
2023-05-05T20:54:46.467Z,99048.97
2023-05-05T20:57:13.349Z,99050.00
2023-05-05T20:59:40.200Z,99055.22
2023-05-05T21:02:07.762Z,99041.66
2023-05-05T21:04:34.861Z,99055.34
2023-05-05T21:07:01.701Z,99051.03
2023-05-05T21:09:28.904Z,99037.06
2023-05-05T21:11:55.838Z,99045.53
2023-05-05T21:14:23.357Z,99048.97
2023-05-05T21:16:50.301Z,99043.47
2023-05-05T21:19:17.305Z,99047.50
2023-05-05T21:21:44.278Z,99050.84
2023-05-05T21:24:12.928Z,99037.91
2023-05-05T21:26:45.604Z,99014.78
2023-05-05T21:29:12.409Z,99037.50
2023-05-05T21:31:39.296Z,99024.69
2023-05-05T21:34:06.192Z,99045.22
2023-05-05T21:36:33.751Z,99040.22
2023-05-05T21:39:00.974Z,99038.13
2023-05-05T21:41:27.973Z,99030.56
2023-05-05T21:43:54.813Z,99032.91
2023-05-05T21:46:21.718Z,99034.16
2023-05-05T21:48:48.620Z,99037.28
2023-05-05T21:51:15.454Z,99040.84
2023-05-05T21:53:42.316Z,99038.94
2023-05-05T21:56:09.357Z,99037.28
2023-05-05T21:58:36.268Z,99028.81
2023-05-05T22:01:03.123Z,99028.69
2023-05-05T22:03:30.056Z,99029.44
2023-05-05T22:05:57.156Z,99012.47
2023-05-05T22:08:24.056Z,99024.22
2023-05-05T22:10:50.839Z,99022.44
2023-05-05T22:13:17.792Z,99018.97
2023-05-05T22:15:47.099Z,99022.44
2023-05-05T22:18:15.202Z,99015.75
2023-05-05T22:20:42.154Z,99019.31
2023-05-05T22:23:09.117Z,99025.53
2023-05-05T22:25:36.121Z,99020.31
2023-05-05T22:28:03.080Z,99022.41
2023-05-05T22:30:29.899Z,99007.88
2023-05-05T22:32:56.964Z,98999.84
2023-05-05T22:35:23.881Z,99009.34
2023-05-05T22:37:50.759Z,99019.69
2023-05-05T22:40:17.704Z,99015.31
2023-05-05T22:42:44.727Z,99020.53
2023-05-05T22:45:12.073Z,99013.63
2023-05-05T22:47:39.188Z,99012.69
2023-05-05T22:50:07.716Z,99014.06
2023-05-05T22:52:34.694Z,99014.69
2023-05-05T22:55:01.519Z,99013.72
2023-05-05T22:57:28.421Z,99010.41
2023-05-05T22:59:55.354Z,99015.94
2023-05-05T23:02:22.268Z,99024.28
2023-05-05T23:04:49.214Z,99029.50
2023-05-05T23:07:16.097Z,99008.44
2023-05-05T23:09:42.883Z,99017.41
2023-05-05T23:12:09.833Z,99014.06
2023-05-05T23:14:36.712Z,99008.94
2023-05-05T23:17:03.783Z,99009.06
2023-05-05T23:19:32.635Z,99009.28
2023-05-05T23:22:00.406Z,99004.44
2023-05-05T23:24:28.144Z,99017.09
2023-05-05T23:26:58.093Z,99004.56
2023-05-05T23:29:24.935Z,99008.44
2023-05-05T23:31:51.744Z,99010.31
2023-05-05T23:34:18.598Z,99006.84
2023-05-05T23:36:45.587Z,98996.84
2023-05-05T23:39:12.413Z,99005.91
2023-05-05T23:41:39.177Z,99006.75
2023-05-05T23:44:06.059Z,99004.03
2023-05-05T23:46:32.868Z,99008.22
2023-05-05T23:48:59.684Z,99003.72
2023-05-05T23:51:27.659Z,99009.28
2023-05-05T23:53:56.834Z,99006.84
2023-05-05T23:56:24.426Z,99012.19
2023-05-05T23:58:52.512Z,99007.47
